<?xml version="1.0" encoding="UTF-8" standalone="no" ?>
<gpx xmlns="http://www.topografix.com/GPX/1/1" xmlns:xsi="http://www.w3.org/2001/XMLSchema-instance" xsi:schemaLocation="http://www.topografix.com/GPX/1/1 http://www.topografix.com/GPX/1/1/gpx.xsd" version="1.1" creator="VisuGPX - https://www.visugpx.com">
  <metadata>
    <name>VEF - 2025 - 15km</name>
  </metadata>
  <trk>
    <name><![CDATA[15km-Villersenfraises2025-20401521]]></name>
    <extensions>
      <line xmlns="http://www.topografix.com/GPX/gpx_style/0/2">
        <color>0000FF</color>
        <width>4</width>
          <extensions>
            <sens>1</sens>
          </extensions>
      </line>
    </extensions>
    <trkseg>
      <trkpt lat="50.18948" lon="4.4726">
        <ele>256</ele>
        <time>2025-01-14T14:55:30Z</time>
      </trkpt>
      <trkpt lat="50.18968" lon="4.47292">
        <ele>256</ele>
        <time>2025-01-14T14:54:52Z</time>
      </trkpt>
      <trkpt lat="50.18972" lon="4.47309">
        <ele>256</ele>
        <time>2025-01-14T14:54:37Z</time>
      </trkpt>
      <trkpt lat="50.18996" lon="4.47292">
        <ele>257</ele>
        <time>2025-01-14T14:54:02Z</time>
      </trkpt>
      <trkpt lat="50.1906" lon="4.47252">
        <ele>261</ele>
        <time>2025-01-14T14:52:30Z</time>
      </trkpt>
      <trkpt lat="50.19239" lon="4.47208">
        <ele>273</ele>
        <time>2025-01-14T14:48:28Z</time>
      </trkpt>
      <trkpt lat="50.19392" lon="4.47053">
        <ele>282</ele>
        <time>2025-01-14T14:44:24Z</time>
      </trkpt>
      <trkpt lat="50.19424" lon="4.47026">
        <ele>283</ele>
        <time>2025-01-14T14:43:36Z</time>
      </trkpt>
      <trkpt lat="50.19429" lon="4.47022">
        <ele>284</ele>
        <time>2025-01-14T14:43:28Z</time>
      </trkpt>
      <trkpt lat="50.19494" lon="4.46925">
        <ele>285</ele>
        <time>2025-01-14T14:41:28Z</time>
      </trkpt>
      <trkpt lat="50.19524" lon="4.4689">
        <ele>284</ele>
        <time>2025-01-14T14:40:38Z</time>
      </trkpt>
      <trkpt lat="50.1961" lon="4.46826">
        <ele>283</ele>
        <time>2025-01-14T14:38:31Z</time>
      </trkpt>
      <trkpt lat="50.19608" lon="4.46789">
        <ele>282</ele>
        <time>2025-01-14T14:38:00Z</time>
      </trkpt>
      <trkpt lat="50.19606" lon="4.4676">
        <ele>282</ele>
        <time>2025-01-14T14:37:35Z</time>
      </trkpt>
      <trkpt lat="50.19605" lon="4.46722">
        <ele>282</ele>
        <time>2025-01-14T14:37:02Z</time>
      </trkpt>
      <trkpt lat="50.19595" lon="4.46577">
        <ele>284</ele>
        <time>2025-01-14T14:34:58Z</time>
      </trkpt>
      <trkpt lat="50.19595" lon="4.46557">
        <ele>284</ele>
        <time>2025-01-14T14:34:41Z</time>
      </trkpt>
      <trkpt lat="50.19598" lon="4.46534">
        <ele>284</ele>
        <time>2025-01-14T14:34:21Z</time>
      </trkpt>
      <trkpt lat="50.19619" lon="4.46454">
        <ele>284</ele>
        <time>2025-01-14T14:33:07Z</time>
      </trkpt>
      <trkpt lat="50.1965" lon="4.46262">
        <ele>283</ele>
        <time>2025-01-14T14:30:17Z</time>
      </trkpt>
      <trkpt lat="50.19668" lon="4.46131">
        <ele>283</ele>
        <time>2025-01-14T14:28:23Z</time>
      </trkpt>
      <trkpt lat="50.19672" lon="4.46109">
        <ele>284</ele>
        <time>2025-01-14T14:28:03Z</time>
      </trkpt>
      <trkpt lat="50.19704" lon="4.45925">
        <ele>292</ele>
        <time>2025-01-14T14:25:21Z</time>
      </trkpt>
      <trkpt lat="50.19738" lon="4.45591">
        <ele>294</ele>
        <time>2025-01-14T14:20:32Z</time>
      </trkpt>
      <trkpt lat="50.19742" lon="4.45514">
        <ele>291</ele>
        <time>2025-01-14T14:19:26Z</time>
      </trkpt>
      <trkpt lat="50.19742" lon="4.45503">
        <ele>291</ele>
        <time>2025-01-14T14:19:16Z</time>
      </trkpt>
      <trkpt lat="50.19742" lon="4.45514">
        <ele>291</ele>
        <time>2025-01-14T14:19:07Z</time>
      </trkpt>
      <trkpt lat="50.19748" lon="4.45514">
        <ele>291</ele>
        <time>2025-01-14T14:18:59Z</time>
      </trkpt>
      <trkpt lat="50.19892" lon="4.45493">
        <ele>285</ele>
        <time>2025-01-14T14:15:46Z</time>
      </trkpt>
      <trkpt lat="50.2013" lon="4.45493">
        <ele>277</ele>
        <time>2025-01-14T14:10:28Z</time>
      </trkpt>
      <trkpt lat="50.20207" lon="4.45465">
        <ele>268</ele>
        <time>2025-01-14T14:08:43Z</time>
      </trkpt>
      <trkpt lat="50.20236" lon="4.45456">
        <ele>265</ele>
        <time>2025-01-14T14:08:03Z</time>
      </trkpt>
      <trkpt lat="50.20241" lon="4.45454">
        <ele>264</ele>
        <time>2025-01-14T14:07:56Z</time>
      </trkpt>
      <trkpt lat="50.20336" lon="4.45488">
        <ele>255</ele>
        <time>2025-01-14T14:05:46Z</time>
      </trkpt>
      <trkpt lat="50.20369" lon="4.45514">
        <ele>251</ele>
        <time>2025-01-14T14:04:57Z</time>
      </trkpt>
      <trkpt lat="50.20476" lon="4.45534">
        <ele>244</ele>
        <time>2025-01-14T14:02:33Z</time>
      </trkpt>
      <trkpt lat="50.20553" lon="4.45588">
        <ele>244</ele>
        <time>2025-01-14T14:00:41Z</time>
      </trkpt>
      <trkpt lat="50.20725" lon="4.45714">
        <ele>237</ele>
        <time>2025-01-14T13:56:27Z</time>
      </trkpt>
      <trkpt lat="50.20733" lon="4.45722">
        <ele>237</ele>
        <time>2025-01-14T13:56:14Z</time>
      </trkpt>
      <trkpt lat="50.20736" lon="4.45725">
        <ele>237</ele>
        <time>2025-01-14T13:56:10Z</time>
      </trkpt>
      <trkpt lat="50.20747" lon="4.4572">
        <ele>237</ele>
        <time>2025-01-14T13:55:54Z</time>
      </trkpt>
      <trkpt lat="50.2076" lon="4.45718">
        <ele>238</ele>
        <time>2025-01-14T13:55:37Z</time>
      </trkpt>
      <trkpt lat="50.20769" lon="4.45711">
        <ele>239</ele>
        <time>2025-01-14T13:55:24Z</time>
      </trkpt>
      <trkpt lat="50.20777" lon="4.45684">
        <ele>240</ele>
        <time>2025-01-14T13:54:58Z</time>
      </trkpt>
      <trkpt lat="50.20786" lon="4.45636">
        <ele>240</ele>
        <time>2025-01-14T13:54:15Z</time>
      </trkpt>
      <trkpt lat="50.20791" lon="4.456">
        <ele>241</ele>
        <time>2025-01-14T13:53:44Z</time>
      </trkpt>
      <trkpt lat="50.20794" lon="4.45583">
        <ele>241</ele>
        <time>2025-01-14T13:53:29Z</time>
      </trkpt>
      <trkpt lat="50.20799" lon="4.45567">
        <ele>241</ele>
        <time>2025-01-14T13:53:14Z</time>
      </trkpt>
      <trkpt lat="50.20807" lon="4.45551">
        <ele>241</ele>
        <time>2025-01-14T13:52:56Z</time>
      </trkpt>
      <trkpt lat="50.2079" lon="4.45523">
        <ele>240</ele>
        <time>2025-01-14T13:52:23Z</time>
      </trkpt>
      <trkpt lat="50.20782" lon="4.45507">
        <ele>239</ele>
        <time>2025-01-14T13:52:06Z</time>
      </trkpt>
      <trkpt lat="50.20774" lon="4.45476">
        <ele>240</ele>
        <time>2025-01-14T13:51:38Z</time>
      </trkpt>
      <trkpt lat="50.20742" lon="4.45238">
        <ele>241</ele>
        <time>2025-01-14T13:48:10Z</time>
      </trkpt>
      <trkpt lat="50.20741" lon="4.45234">
        <ele>241</ele>
        <time>2025-01-14T13:48:06Z</time>
      </trkpt>
      <trkpt lat="50.20742" lon="4.45238">
        <ele>241</ele>
        <time>2025-01-14T13:48:02Z</time>
      </trkpt>
      <trkpt lat="50.20761" lon="4.45183">
        <ele>242</ele>
        <time>2025-01-14T13:47:09Z</time>
      </trkpt>
      <trkpt lat="50.2079" lon="4.45115">
        <ele>245</ele>
        <time>2025-01-14T13:45:59Z</time>
      </trkpt>
      <trkpt lat="50.20806" lon="4.4504">
        <ele>246</ele>
        <time>2025-01-14T13:44:52Z</time>
      </trkpt>
      <trkpt lat="50.20807" lon="4.44969">
        <ele>245</ele>
        <time>2025-01-14T13:43:51Z</time>
      </trkpt>
      <trkpt lat="50.20804" lon="4.44915">
        <ele>245</ele>
        <time>2025-01-14T13:43:05Z</time>
      </trkpt>
      <trkpt lat="50.20821" lon="4.4482">
        <ele>243</ele>
        <time>2025-01-14T13:41:41Z</time>
      </trkpt>
      <trkpt lat="50.20822" lon="4.44742">
        <ele>242</ele>
        <time>2025-01-14T13:40:34Z</time>
      </trkpt>
      <trkpt lat="50.20821" lon="4.44679">
        <ele>241</ele>
        <time>2025-01-14T13:39:40Z</time>
      </trkpt>
      <trkpt lat="50.2082" lon="4.44636">
        <ele>241</ele>
        <time>2025-01-14T13:39:03Z</time>
      </trkpt>
      <trkpt lat="50.20825" lon="4.44609">
        <ele>241</ele>
        <time>2025-01-14T13:38:39Z</time>
      </trkpt>
      <trkpt lat="50.20824" lon="4.44576">
        <ele>241</ele>
        <time>2025-01-14T13:38:11Z</time>
      </trkpt>
      <trkpt lat="50.20827" lon="4.44539">
        <ele>240</ele>
        <time>2025-01-14T13:37:39Z</time>
      </trkpt>
      <trkpt lat="50.20838" lon="4.44492">
        <ele>241</ele>
        <time>2025-01-14T13:36:57Z</time>
      </trkpt>
      <trkpt lat="50.20849" lon="4.44451">
        <ele>242</ele>
        <time>2025-01-14T13:36:19Z</time>
      </trkpt>
      <trkpt lat="50.20855" lon="4.44425">
        <ele>243</ele>
        <time>2025-01-14T13:35:55Z</time>
      </trkpt>
      <trkpt lat="50.20857" lon="4.44413">
        <ele>243</ele>
        <time>2025-01-14T13:35:44Z</time>
      </trkpt>
      <trkpt lat="50.2086" lon="4.44391">
        <ele>244</ele>
        <time>2025-01-14T13:35:25Z</time>
      </trkpt>
      <trkpt lat="50.20867" lon="4.44329">
        <ele>246</ele>
        <time>2025-01-14T13:34:31Z</time>
      </trkpt>
      <trkpt lat="50.2087" lon="4.44316">
        <ele>246</ele>
        <time>2025-01-14T13:34:20Z</time>
      </trkpt>
      <trkpt lat="50.20875" lon="4.44305">
        <ele>247</ele>
        <time>2025-01-14T13:34:08Z</time>
      </trkpt>
      <trkpt lat="50.20882" lon="4.44299">
        <ele>248</ele>
        <time>2025-01-14T13:33:57Z</time>
      </trkpt>
      <trkpt lat="50.20889" lon="4.443">
        <ele>249</ele>
        <time>2025-01-14T13:33:48Z</time>
      </trkpt>
      <trkpt lat="50.20905" lon="4.44318">
        <ele>252</ele>
        <time>2025-01-14T13:33:22Z</time>
      </trkpt>
      <trkpt lat="50.2091" lon="4.4433">
        <ele>253</ele>
        <time>2025-01-14T13:33:10Z</time>
      </trkpt>
      <trkpt lat="50.20915" lon="4.44365">
        <ele>254</ele>
        <time>2025-01-14T13:32:39Z</time>
      </trkpt>
      <trkpt lat="50.20936" lon="4.4439">
        <ele>255</ele>
        <time>2025-01-14T13:32:04Z</time>
      </trkpt>
      <trkpt lat="50.2097" lon="4.44405">
        <ele>258</ele>
        <time>2025-01-14T13:31:17Z</time>
      </trkpt>
      <trkpt lat="50.20999" lon="4.44408">
        <ele>260</ele>
        <time>2025-01-14T13:30:38Z</time>
      </trkpt>
      <trkpt lat="50.21077" lon="4.44406">
        <ele>260</ele>
        <time>2025-01-14T13:28:54Z</time>
      </trkpt>
      <trkpt lat="50.21191" lon="4.44444">
        <ele>264</ele>
        <time>2025-01-14T13:26:18Z</time>
      </trkpt>
      <trkpt lat="50.21189" lon="4.44508">
        <ele>264</ele>
        <time>2025-01-14T13:25:23Z</time>
      </trkpt>
      <trkpt lat="50.21182" lon="4.44669">
        <ele>265</ele>
        <time>2025-01-14T13:23:06Z</time>
      </trkpt>
      <trkpt lat="50.21202" lon="4.44806">
        <ele>266</ele>
        <time>2025-01-14T13:21:06Z</time>
      </trkpt>
      <trkpt lat="50.21205" lon="4.44863">
        <ele>266</ele>
        <time>2025-01-14T13:20:17Z</time>
      </trkpt>
      <trkpt lat="50.21195" lon="4.44989">
        <ele>268</ele>
        <time>2025-01-14T13:18:28Z</time>
      </trkpt>
      <trkpt lat="50.21182" lon="4.45028">
        <ele>269</ele>
        <time>2025-01-14T13:17:51Z</time>
      </trkpt>
      <trkpt lat="50.21167" lon="4.45086">
        <ele>270</ele>
        <time>2025-01-14T13:16:57Z</time>
      </trkpt>
      <trkpt lat="50.21136" lon="4.45197">
        <ele>268</ele>
        <time>2025-01-14T13:15:14Z</time>
      </trkpt>
      <trkpt lat="50.2111" lon="4.4532">
        <ele>267</ele>
        <time>2025-01-14T13:13:23Z</time>
      </trkpt>
      <trkpt lat="50.21121" lon="4.45409">
        <ele>268</ele>
        <time>2025-01-14T13:12:06Z</time>
      </trkpt>
      <trkpt lat="50.2113" lon="4.45629">
        <ele>266</ele>
        <time>2025-01-14T13:08:58Z</time>
      </trkpt>
      <trkpt lat="50.21111" lon="4.45832">
        <ele>267</ele>
        <time>2025-01-14T13:06:02Z</time>
      </trkpt>
      <trkpt lat="50.21102" lon="4.45908">
        <ele>266</ele>
        <time>2025-01-14T13:04:56Z</time>
      </trkpt>
      <trkpt lat="50.21094" lon="4.45902">
        <ele>266</ele>
        <time>2025-01-14T13:04:45Z</time>
      </trkpt>
      <trkpt lat="50.21093" lon="4.45909">
        <ele>266</ele>
        <time>2025-01-14T13:04:38Z</time>
      </trkpt>
      <trkpt lat="50.21092" lon="4.45925">
        <ele>266</ele>
        <time>2025-01-14T13:04:25Z</time>
      </trkpt>
      <trkpt lat="50.21091" lon="4.46017">
        <ele>266</ele>
        <time>2025-01-14T13:03:06Z</time>
      </trkpt>
      <trkpt lat="50.21071" lon="4.46274">
        <ele>267</ele>
        <time>2025-01-14T12:59:25Z</time>
      </trkpt>
      <trkpt lat="50.21048" lon="4.46456">
        <ele>268</ele>
        <time>2025-01-14T12:56:47Z</time>
      </trkpt>
      <trkpt lat="50.21048" lon="4.46469">
        <ele>268</ele>
        <time>2025-01-14T12:56:35Z</time>
      </trkpt>
      <trkpt lat="50.21054" lon="4.46491">
        <ele>268</ele>
        <time>2025-01-14T12:56:15Z</time>
      </trkpt>
      <trkpt lat="50.21046" lon="4.46515">
        <ele>268</ele>
        <time>2025-01-14T12:55:52Z</time>
      </trkpt>
      <trkpt lat="50.21048" lon="4.46526">
        <ele>268</ele>
        <time>2025-01-14T12:55:42Z</time>
      </trkpt>
      <trkpt lat="50.21048" lon="4.46546">
        <ele>268</ele>
        <time>2025-01-14T12:55:25Z</time>
      </trkpt>
      <trkpt lat="50.21028" lon="4.46658">
        <ele>267</ele>
        <time>2025-01-14T12:53:46Z</time>
      </trkpt>
      <trkpt lat="50.21015" lon="4.46719">
        <ele>267</ele>
        <time>2025-01-14T12:52:51Z</time>
      </trkpt>
      <trkpt lat="50.21004" lon="4.46816">
        <ele>266</ele>
        <time>2025-01-14T12:51:27Z</time>
      </trkpt>
      <trkpt lat="50.20982" lon="4.47039">
        <ele>268</ele>
        <time>2025-01-14T12:48:14Z</time>
      </trkpt>
      <trkpt lat="50.20972" lon="4.47203">
        <ele>269</ele>
        <time>2025-01-14T12:45:53Z</time>
      </trkpt>
      <trkpt lat="50.20965" lon="4.47252">
        <ele>269</ele>
        <time>2025-01-14T12:45:10Z</time>
      </trkpt>
      <trkpt lat="50.20996" lon="4.47259">
        <ele>271</ele>
        <time>2025-01-14T12:44:29Z</time>
      </trkpt>
      <trkpt lat="50.21008" lon="4.47263">
        <ele>271</ele>
        <time>2025-01-14T12:44:12Z</time>
      </trkpt>
      <trkpt lat="50.21064" lon="4.47296">
        <ele>273</ele>
        <time>2025-01-14T12:42:52Z</time>
      </trkpt>
      <trkpt lat="50.21076" lon="4.47299">
        <ele>273</ele>
        <time>2025-01-14T12:42:36Z</time>
      </trkpt>
      <trkpt lat="50.21089" lon="4.47297">
        <ele>273</ele>
        <time>2025-01-14T12:42:19Z</time>
      </trkpt>
      <trkpt lat="50.211" lon="4.47292">
        <ele>272</ele>
        <time>2025-01-14T12:42:04Z</time>
      </trkpt>
      <trkpt lat="50.21107" lon="4.47286">
        <ele>272</ele>
        <time>2025-01-14T12:41:53Z</time>
      </trkpt>
      <trkpt lat="50.21119" lon="4.47271">
        <ele>271</ele>
        <time>2025-01-14T12:41:32Z</time>
      </trkpt>
      <trkpt lat="50.21125" lon="4.47258">
        <ele>271</ele>
        <time>2025-01-14T12:41:19Z</time>
      </trkpt>
      <trkpt lat="50.21133" lon="4.47234">
        <ele>271</ele>
        <time>2025-01-14T12:40:56Z</time>
      </trkpt>
      <trkpt lat="50.2114" lon="4.47207">
        <ele>270</ele>
        <time>2025-01-14T12:40:31Z</time>
      </trkpt>
      <trkpt lat="50.21144" lon="4.47201">
        <ele>270</ele>
        <time>2025-01-14T12:40:23Z</time>
      </trkpt>
      <trkpt lat="50.21149" lon="4.47197">
        <ele>270</ele>
        <time>2025-01-14T12:40:16Z</time>
      </trkpt>
      <trkpt lat="50.2116" lon="4.47194">
        <ele>270</ele>
        <time>2025-01-14T12:40:01Z</time>
      </trkpt>
      <trkpt lat="50.21172" lon="4.47197">
        <ele>269</ele>
        <time>2025-01-14T12:39:45Z</time>
      </trkpt>
      <trkpt lat="50.21187" lon="4.47204">
        <ele>268</ele>
        <time>2025-01-14T12:39:24Z</time>
      </trkpt>
      <trkpt lat="50.21239" lon="4.47233">
        <ele>265</ele>
        <time>2025-01-14T12:38:10Z</time>
      </trkpt>
      <trkpt lat="50.21273" lon="4.47244">
        <ele>263</ele>
        <time>2025-01-14T12:37:24Z</time>
      </trkpt>
      <trkpt lat="50.21304" lon="4.4725">
        <ele>262</ele>
        <time>2025-01-14T12:36:42Z</time>
      </trkpt>
      <trkpt lat="50.21329" lon="4.47259">
        <ele>261</ele>
        <time>2025-01-14T12:36:08Z</time>
      </trkpt>
      <trkpt lat="50.21335" lon="4.47263">
        <ele>261</ele>
        <time>2025-01-14T12:35:59Z</time>
      </trkpt>
      <trkpt lat="50.21338" lon="4.4727">
        <ele>261</ele>
        <time>2025-01-14T12:35:52Z</time>
      </trkpt>
      <trkpt lat="50.21331" lon="4.47278">
        <ele>261</ele>
        <time>2025-01-14T12:35:40Z</time>
      </trkpt>
      <trkpt lat="50.21327" lon="4.47289">
        <ele>262</ele>
        <time>2025-01-14T12:35:30Z</time>
      </trkpt>
      <trkpt lat="50.21314" lon="4.47383">
        <ele>264</ele>
        <time>2025-01-14T12:34:07Z</time>
      </trkpt>
      <trkpt lat="50.2131" lon="4.47413">
        <ele>264</ele>
        <time>2025-01-14T12:33:41Z</time>
      </trkpt>
      <trkpt lat="50.21296" lon="4.47499">
        <ele>265</ele>
        <time>2025-01-14T12:32:25Z</time>
      </trkpt>
      <trkpt lat="50.21276" lon="4.47594">
        <ele>268</ele>
        <time>2025-01-14T12:31:00Z</time>
      </trkpt>
      <trkpt lat="50.21266" lon="4.47652">
        <ele>269</ele>
        <time>2025-01-14T12:30:09Z</time>
      </trkpt>
      <trkpt lat="50.21263" lon="4.47686">
        <ele>269</ele>
        <time>2025-01-14T12:29:39Z</time>
      </trkpt>
      <trkpt lat="50.21261" lon="4.47718">
        <ele>269</ele>
        <time>2025-01-14T12:29:12Z</time>
      </trkpt>
      <trkpt lat="50.21256" lon="4.47759">
        <ele>269</ele>
        <time>2025-01-14T12:28:36Z</time>
      </trkpt>
      <trkpt lat="50.2124" lon="4.47868">
        <ele>271</ele>
        <time>2025-01-14T12:27:01Z</time>
      </trkpt>
      <trkpt lat="50.21236" lon="4.47896">
        <ele>272</ele>
        <time>2025-01-14T12:26:36Z</time>
      </trkpt>
      <trkpt lat="50.21234" lon="4.47919">
        <ele>273</ele>
        <time>2025-01-14T12:26:17Z</time>
      </trkpt>
      <trkpt lat="50.21235" lon="4.47948">
        <ele>273</ele>
        <time>2025-01-14T12:25:52Z</time>
      </trkpt>
      <trkpt lat="50.21244" lon="4.48087">
        <ele>273</ele>
        <time>2025-01-14T12:23:52Z</time>
      </trkpt>
      <trkpt lat="50.21244" lon="4.48121">
        <ele>273</ele>
        <time>2025-01-14T12:23:23Z</time>
      </trkpt>
      <trkpt lat="50.21242" lon="4.4816">
        <ele>273</ele>
        <time>2025-01-14T12:22:50Z</time>
      </trkpt>
      <trkpt lat="50.21239" lon="4.48195">
        <ele>273</ele>
        <time>2025-01-14T12:22:20Z</time>
      </trkpt>
      <trkpt lat="50.21238" lon="4.48211">
        <ele>273</ele>
        <time>2025-01-14T12:22:06Z</time>
      </trkpt>
      <trkpt lat="50.21235" lon="4.48217">
        <ele>273</ele>
        <time>2025-01-14T12:22:00Z</time>
      </trkpt>
      <trkpt lat="50.21242" lon="4.48231">
        <ele>273</ele>
        <time>2025-01-14T12:21:44Z</time>
      </trkpt>
      <trkpt lat="50.21258" lon="4.48249">
        <ele>272</ele>
        <time>2025-01-14T12:21:18Z</time>
      </trkpt>
      <trkpt lat="50.21263" lon="4.48264">
        <ele>272</ele>
        <time>2025-01-14T12:21:04Z</time>
      </trkpt>
      <trkpt lat="50.21291" lon="4.48325">
        <ele>271</ele>
        <time>2025-01-14T12:20:00Z</time>
      </trkpt>
      <trkpt lat="50.21323" lon="4.48383">
        <ele>269</ele>
        <time>2025-01-14T12:18:54Z</time>
      </trkpt>
      <trkpt lat="50.21339" lon="4.48405">
        <ele>269</ele>
        <time>2025-01-14T12:18:26Z</time>
      </trkpt>
      <trkpt lat="50.21382" lon="4.48465">
        <ele>267</ele>
        <time>2025-01-14T12:17:09Z</time>
      </trkpt>
      <trkpt lat="50.21422" lon="4.48519">
        <ele>266</ele>
        <time>2025-01-14T12:15:58Z</time>
      </trkpt>
      <trkpt lat="50.21464" lon="4.48581">
        <ele>267</ele>
        <time>2025-01-14T12:14:41Z</time>
      </trkpt>
      <trkpt lat="50.21512" lon="4.48662">
        <ele>267</ele>
        <time>2025-01-14T12:13:07Z</time>
      </trkpt>
      <trkpt lat="50.2154" lon="4.48706">
        <ele>268</ele>
        <time>2025-01-14T12:12:14Z</time>
      </trkpt>
      <trkpt lat="50.21549" lon="4.48722">
        <ele>268</ele>
        <time>2025-01-14T12:11:56Z</time>
      </trkpt>
      <trkpt lat="50.21565" lon="4.48754">
        <ele>269</ele>
        <time>2025-01-14T12:11:21Z</time>
      </trkpt>
      <trkpt lat="50.21703" lon="4.48951">
        <ele>261</ele>
        <time>2025-01-14T12:07:12Z</time>
      </trkpt>
      <trkpt lat="50.21712" lon="4.48972">
        <ele>261</ele>
        <time>2025-01-14T12:06:50Z</time>
      </trkpt>
      <trkpt lat="50.21723" lon="4.49006">
        <ele>260</ele>
        <time>2025-01-14T12:06:18Z</time>
      </trkpt>
      <trkpt lat="50.21732" lon="4.49045">
        <ele>259</ele>
        <time>2025-01-14T12:05:42Z</time>
      </trkpt>
      <trkpt lat="50.21738" lon="4.49061">
        <ele>258</ele>
        <time>2025-01-14T12:05:26Z</time>
      </trkpt>
      <trkpt lat="50.21747" lon="4.49074">
        <ele>258</ele>
        <time>2025-01-14T12:05:10Z</time>
      </trkpt>
      <trkpt lat="50.2184" lon="4.49168">
        <ele>259</ele>
        <time>2025-01-14T12:02:42Z</time>
      </trkpt>
      <trkpt lat="50.21885" lon="4.49214">
        <ele>256</ele>
        <time>2025-01-14T12:01:30Z</time>
      </trkpt>
      <trkpt lat="50.21904" lon="4.49235">
        <ele>255</ele>
        <time>2025-01-14T12:00:59Z</time>
      </trkpt>
      <trkpt lat="50.21917" lon="4.49255">
        <ele>255</ele>
        <time>2025-01-14T12:00:35Z</time>
      </trkpt>
      <trkpt lat="50.21944" lon="4.49312">
        <ele>256</ele>
        <time>2025-01-14T11:59:34Z</time>
      </trkpt>
      <trkpt lat="50.21976" lon="4.49374">
        <ele>255</ele>
        <time>2025-01-14T11:58:26Z</time>
      </trkpt>
      <trkpt lat="50.22004" lon="4.49427">
        <ele>252</ele>
        <time>2025-01-14T11:57:28Z</time>
      </trkpt>
      <trkpt lat="50.22011" lon="4.49448">
        <ele>251</ele>
        <time>2025-01-14T11:57:07Z</time>
      </trkpt>
      <trkpt lat="50.22022" lon="4.49532">
        <ele>248</ele>
        <time>2025-01-14T11:55:54Z</time>
      </trkpt>
      <trkpt lat="50.22025" lon="4.49547">
        <ele>247</ele>
        <time>2025-01-14T11:55:41Z</time>
      </trkpt>
      <trkpt lat="50.21997" lon="4.49587">
        <ele>247</ele>
        <time>2025-01-14T11:54:50Z</time>
      </trkpt>
      <trkpt lat="50.2195" lon="4.49661">
        <ele>244</ele>
        <time>2025-01-14T11:53:21Z</time>
      </trkpt>
      <trkpt lat="50.21916" lon="4.49725">
        <ele>242</ele>
        <time>2025-01-14T11:52:10Z</time>
      </trkpt>
      <trkpt lat="50.21841" lon="4.49891">
        <ele>245</ele>
        <time>2025-01-14T11:49:17Z</time>
      </trkpt>
      <trkpt lat="50.21825" lon="4.49916">
        <ele>246</ele>
        <time>2025-01-14T11:48:46Z</time>
      </trkpt>
      <trkpt lat="50.21816" lon="4.49929">
        <ele>246</ele>
        <time>2025-01-14T11:48:30Z</time>
      </trkpt>
      <trkpt lat="50.21794" lon="4.49949">
        <ele>246</ele>
        <time>2025-01-14T11:47:56Z</time>
      </trkpt>
      <trkpt lat="50.21734" lon="4.49979">
        <ele>246</ele>
        <time>2025-01-14T11:46:32Z</time>
      </trkpt>
      <trkpt lat="50.21667" lon="4.50051">
        <ele>249</ele>
        <time>2025-01-14T11:44:44Z</time>
      </trkpt>
      <trkpt lat="50.21663" lon="4.50056">
        <ele>249</ele>
        <time>2025-01-14T11:44:37Z</time>
      </trkpt>
      <trkpt lat="50.2158" lon="4.50167">
        <ele>254</ele>
        <time>2025-01-14T11:42:11Z</time>
      </trkpt>
      <trkpt lat="50.21564" lon="4.5019">
        <ele>255</ele>
        <time>2025-01-14T11:41:42Z</time>
      </trkpt>
      <trkpt lat="50.21526" lon="4.50236">
        <ele>257</ele>
        <time>2025-01-14T11:40:38Z</time>
      </trkpt>
      <trkpt lat="50.21415" lon="4.50292">
        <ele>254</ele>
        <time>2025-01-14T11:38:02Z</time>
      </trkpt>
      <trkpt lat="50.21349" lon="4.50326">
        <ele>252</ele>
        <time>2025-01-14T11:36:29Z</time>
      </trkpt>
      <trkpt lat="50.21318" lon="4.50352">
        <ele>250</ele>
        <time>2025-01-14T11:35:42Z</time>
      </trkpt>
      <trkpt lat="50.21299" lon="4.50387">
        <ele>249</ele>
        <time>2025-01-14T11:35:03Z</time>
      </trkpt>
      <trkpt lat="50.21275" lon="4.50425">
        <ele>248</ele>
        <time>2025-01-14T11:34:18Z</time>
      </trkpt>
      <trkpt lat="50.21265" lon="4.50439">
        <ele>248</ele>
        <time>2025-01-14T11:34:00Z</time>
      </trkpt>
      <trkpt lat="50.21266" lon="4.50425">
        <ele>248</ele>
        <time>2025-01-14T11:33:48Z</time>
      </trkpt>
      <trkpt lat="50.21265" lon="4.50406">
        <ele>248</ele>
        <time>2025-01-14T11:33:31Z</time>
      </trkpt>
      <trkpt lat="50.21266" lon="4.50202">
        <ele>252</ele>
        <time>2025-01-14T11:30:37Z</time>
      </trkpt>
      <trkpt lat="50.2127" lon="4.50056">
        <ele>257</ele>
        <time>2025-01-14T11:28:32Z</time>
      </trkpt>
      <trkpt lat="50.21278" lon="4.50024">
        <ele>257</ele>
        <time>2025-01-14T11:28:03Z</time>
      </trkpt>
      <trkpt lat="50.21281" lon="4.50018">
        <ele>257</ele>
        <time>2025-01-14T11:27:57Z</time>
      </trkpt>
      <trkpt lat="50.21283" lon="4.50014">
        <ele>257</ele>
        <time>2025-01-14T11:27:52Z</time>
      </trkpt>
      <trkpt lat="50.21302" lon="4.49989">
        <ele>257</ele>
        <time>2025-01-14T11:27:19Z</time>
      </trkpt>
      <trkpt lat="50.2131" lon="4.49972">
        <ele>256</ele>
        <time>2025-01-14T11:27:01Z</time>
      </trkpt>
      <trkpt lat="50.21317" lon="4.49936">
        <ele>256</ele>
        <time>2025-01-14T11:26:29Z</time>
      </trkpt>
      <trkpt lat="50.2132" lon="4.49893">
        <ele>257</ele>
        <time>2025-01-14T11:25:52Z</time>
      </trkpt>
      <trkpt lat="50.21318" lon="4.49869">
        <ele>257</ele>
        <time>2025-01-14T11:25:31Z</time>
      </trkpt>
      <trkpt lat="50.21312" lon="4.49844">
        <ele>257</ele>
        <time>2025-01-14T11:25:09Z</time>
      </trkpt>
      <trkpt lat="50.21306" lon="4.49805">
        <ele>257</ele>
        <time>2025-01-14T11:24:34Z</time>
      </trkpt>
      <trkpt lat="50.21302" lon="4.49719">
        <ele>257</ele>
        <time>2025-01-14T11:23:21Z</time>
      </trkpt>
      <trkpt lat="50.21296" lon="4.49622">
        <ele>258</ele>
        <time>2025-01-14T11:21:57Z</time>
      </trkpt>
      <trkpt lat="50.21287" lon="4.49577">
        <ele>259</ele>
        <time>2025-01-14T11:21:17Z</time>
      </trkpt>
      <trkpt lat="50.21259" lon="4.49483">
        <ele>260</ele>
        <time>2025-01-14T11:19:49Z</time>
      </trkpt>
      <trkpt lat="50.21259" lon="4.49468">
        <ele>260</ele>
        <time>2025-01-14T11:19:36Z</time>
      </trkpt>
      <trkpt lat="50.21262" lon="4.49454">
        <ele>260</ele>
        <time>2025-01-14T11:19:23Z</time>
      </trkpt>
      <trkpt lat="50.21287" lon="4.49382">
        <ele>261</ele>
        <time>2025-01-14T11:18:13Z</time>
      </trkpt>
      <trkpt lat="50.21298" lon="4.49345">
        <ele>261</ele>
        <time>2025-01-14T11:17:38Z</time>
      </trkpt>
      <trkpt lat="50.21297" lon="4.49317">
        <ele>261</ele>
        <time>2025-01-14T11:17:14Z</time>
      </trkpt>
      <trkpt lat="50.21305" lon="4.49201">
        <ele>262</ele>
        <time>2025-01-14T11:15:35Z</time>
      </trkpt>
      <trkpt lat="50.21304" lon="4.49146">
        <ele>262</ele>
        <time>2025-01-14T11:14:48Z</time>
      </trkpt>
      <trkpt lat="50.21289" lon="4.49021">
        <ele>263</ele>
        <time>2025-01-14T11:12:59Z</time>
      </trkpt>
      <trkpt lat="50.21261" lon="4.48844">
        <ele>264</ele>
        <time>2025-01-14T11:10:24Z</time>
      </trkpt>
      <trkpt lat="50.21256" lon="4.48785">
        <ele>264</ele>
        <time>2025-01-14T11:09:33Z</time>
      </trkpt>
      <trkpt lat="50.21256" lon="4.48697">
        <ele>264</ele>
        <time>2025-01-14T11:08:18Z</time>
      </trkpt>
      <trkpt lat="50.21242" lon="4.48495">
        <ele>267</ele>
        <time>2025-01-14T11:05:24Z</time>
      </trkpt>
      <trkpt lat="50.21235" lon="4.48217">
        <ele>273</ele>
        <time>2025-01-14T11:01:26Z</time>
      </trkpt>
      <trkpt lat="50.2123" lon="4.48217">
        <ele>273</ele>
        <time>2025-01-14T11:01:20Z</time>
      </trkpt>
      <trkpt lat="50.21222" lon="4.48211">
        <ele>274</ele>
        <time>2025-01-14T11:01:08Z</time>
      </trkpt>
      <trkpt lat="50.21211" lon="4.48194">
        <ele>274</ele>
        <time>2025-01-14T11:00:47Z</time>
      </trkpt>
      <trkpt lat="50.21199" lon="4.48179">
        <ele>275</ele>
        <time>2025-01-14T11:00:27Z</time>
      </trkpt>
      <trkpt lat="50.2119" lon="4.48172">
        <ele>275</ele>
        <time>2025-01-14T11:00:13Z</time>
      </trkpt>
      <trkpt lat="50.21173" lon="4.48162">
        <ele>276</ele>
        <time>2025-01-14T10:59:49Z</time>
      </trkpt>
      <trkpt lat="50.21157" lon="4.48157">
        <ele>276</ele>
        <time>2025-01-14T10:59:27Z</time>
      </trkpt>
      <trkpt lat="50.21131" lon="4.48159">
        <ele>276</ele>
        <time>2025-01-14T10:58:53Z</time>
      </trkpt>
      <trkpt lat="50.20991" lon="4.48182">
        <ele>272</ele>
        <time>2025-01-14T10:55:45Z</time>
      </trkpt>
      <trkpt lat="50.20955" lon="4.48187">
        <ele>270</ele>
        <time>2025-01-14T10:54:57Z</time>
      </trkpt>
      <trkpt lat="50.2087" lon="4.48186">
        <ele>265</ele>
        <time>2025-01-14T10:53:03Z</time>
      </trkpt>
      <trkpt lat="50.2087" lon="4.48165">
        <ele>265</ele>
        <time>2025-01-14T10:52:45Z</time>
      </trkpt>
      <trkpt lat="50.20872" lon="4.48135">
        <ele>265</ele>
        <time>2025-01-14T10:52:19Z</time>
      </trkpt>
      <trkpt lat="50.20879" lon="4.48048">
        <ele>266</ele>
        <time>2025-01-14T10:51:05Z</time>
      </trkpt>
      <trkpt lat="50.20886" lon="4.47943">
        <ele>266</ele>
        <time>2025-01-14T10:49:34Z</time>
      </trkpt>
      <trkpt lat="50.20887" lon="4.47895">
        <ele>266</ele>
        <time>2025-01-14T10:48:53Z</time>
      </trkpt>
      <trkpt lat="50.20886" lon="4.47869">
        <ele>265</ele>
        <time>2025-01-14T10:48:31Z</time>
      </trkpt>
      <trkpt lat="50.20882" lon="4.47848">
        <ele>265</ele>
        <time>2025-01-14T10:48:12Z</time>
      </trkpt>
      <trkpt lat="50.20875" lon="4.4782">
        <ele>264</ele>
        <time>2025-01-14T10:47:47Z</time>
      </trkpt>
      <trkpt lat="50.20865" lon="4.47799">
        <ele>264</ele>
        <time>2025-01-14T10:47:24Z</time>
      </trkpt>
      <trkpt lat="50.20825" lon="4.47732">
        <ele>262</ele>
        <time>2025-01-14T10:46:06Z</time>
      </trkpt>
      <trkpt lat="50.20788" lon="4.47672">
        <ele>260</ele>
        <time>2025-01-14T10:44:55Z</time>
      </trkpt>
      <trkpt lat="50.20773" lon="4.47645">
        <ele>259</ele>
        <time>2025-01-14T10:44:24Z</time>
      </trkpt>
      <trkpt lat="50.20746" lon="4.47584">
        <ele>258</ele>
        <time>2025-01-14T10:43:21Z</time>
      </trkpt>
      <trkpt lat="50.20726" lon="4.47521">
        <ele>255</ele>
        <time>2025-01-14T10:42:21Z</time>
      </trkpt>
      <trkpt lat="50.20717" lon="4.47502">
        <ele>254</ele>
        <time>2025-01-14T10:42:01Z</time>
      </trkpt>
      <trkpt lat="50.20685" lon="4.47399">
        <ele>252</ele>
        <time>2025-01-14T10:40:23Z</time>
      </trkpt>
      <trkpt lat="50.20667" lon="4.47331">
        <ele>251</ele>
        <time>2025-01-14T10:39:20Z</time>
      </trkpt>
      <trkpt lat="50.20654" lon="4.47214">
        <ele>250</ele>
        <time>2025-01-14T10:37:39Z</time>
      </trkpt>
      <trkpt lat="50.20644" lon="4.47184">
        <ele>250</ele>
        <time>2025-01-14T10:37:10Z</time>
      </trkpt>
      <trkpt lat="50.20635" lon="4.47135">
        <ele>249</ele>
        <time>2025-01-14T10:36:26Z</time>
      </trkpt>
      <trkpt lat="50.20633" lon="4.47113">
        <ele>249</ele>
        <time>2025-01-14T10:36:07Z</time>
      </trkpt>
      <trkpt lat="50.20639" lon="4.47062">
        <ele>248</ele>
        <time>2025-01-14T10:35:23Z</time>
      </trkpt>
      <trkpt lat="50.20641" lon="4.47013">
        <ele>248</ele>
        <time>2025-01-14T10:34:41Z</time>
      </trkpt>
      <trkpt lat="50.20632" lon="4.46991">
        <ele>248</ele>
        <time>2025-01-14T10:34:19Z</time>
      </trkpt>
      <trkpt lat="50.20627" lon="4.46981">
        <ele>248</ele>
        <time>2025-01-14T10:34:08Z</time>
      </trkpt>
      <trkpt lat="50.20616" lon="4.46966">
        <ele>248</ele>
        <time>2025-01-14T10:33:49Z</time>
      </trkpt>
      <trkpt lat="50.20477" lon="4.46812">
        <ele>250</ele>
        <time>2025-01-14T10:30:01Z</time>
      </trkpt>
      <trkpt lat="50.20407" lon="4.46748">
        <ele>252</ele>
        <time>2025-01-14T10:28:13Z</time>
      </trkpt>
      <trkpt lat="50.20347" lon="4.46711">
        <ele>256</ele>
        <time>2025-01-14T10:26:47Z</time>
      </trkpt>
      <trkpt lat="50.20235" lon="4.46669">
        <ele>266</ele>
        <time>2025-01-14T10:24:13Z</time>
      </trkpt>
      <trkpt lat="50.20113" lon="4.4663">
        <ele>272</ele>
        <time>2025-01-14T10:21:27Z</time>
      </trkpt>
      <trkpt lat="50.20093" lon="4.4664">
        <ele>273</ele>
        <time>2025-01-14T10:20:59Z</time>
      </trkpt>
      <trkpt lat="50.19893" lon="4.46679">
        <ele>276</ele>
        <time>2025-01-14T10:16:30Z</time>
      </trkpt>
      <trkpt lat="50.19831" lon="4.46727">
        <ele>277</ele>
        <time>2025-01-14T10:14:58Z</time>
      </trkpt>
      <trkpt lat="50.19781" lon="4.46761">
        <ele>276</ele>
        <time>2025-01-14T10:13:45Z</time>
      </trkpt>
      <trkpt lat="50.1963" lon="4.46816">
        <ele>282</ele>
        <time>2025-01-14T10:10:18Z</time>
      </trkpt>
      <trkpt lat="50.1961" lon="4.46826">
        <ele>283</ele>
        <time>2025-01-14T10:09:50Z</time>
      </trkpt>
      <trkpt lat="50.19524" lon="4.4689">
        <ele>284</ele>
        <time>2025-01-14T10:07:43Z</time>
      </trkpt>
      <trkpt lat="50.19494" lon="4.46925">
        <ele>285</ele>
        <time>2025-01-14T10:06:53Z</time>
      </trkpt>
      <trkpt lat="50.19429" lon="4.47022">
        <ele>284</ele>
        <time>2025-01-14T10:04:53Z</time>
      </trkpt>
      <trkpt lat="50.19424" lon="4.47026">
        <ele>283</ele>
        <time>2025-01-14T10:04:45Z</time>
      </trkpt>
      <trkpt lat="50.19392" lon="4.47053">
        <ele>282</ele>
        <time>2025-01-14T10:03:57Z</time>
      </trkpt>
      <trkpt lat="50.19239" lon="4.47208">
        <ele>273</ele>
        <time>2025-01-14T09:59:53Z</time>
      </trkpt>
      <trkpt lat="50.1906" lon="4.47252">
        <ele>261</ele>
        <time>2025-01-14T09:55:52Z</time>
      </trkpt>
      <trkpt lat="50.18996" lon="4.47292">
        <ele>257</ele>
        <time>2025-01-14T09:54:20Z</time>
      </trkpt>
      <trkpt lat="50.18972" lon="4.47309">
        <ele>256</ele>
        <time>2025-01-14T09:53:45Z</time>
      </trkpt>
      <trkpt lat="50.18968" lon="4.47292">
        <ele>256</ele>
        <time>2025-01-14T09:53:29Z</time>
      </trkpt>
      <trkpt lat="50.18948" lon="4.4726">
        <ele>256</ele>
        <time>2025-01-14T09:52:51Z</time>
      </trkpt>
      <trkpt lat="50.18942" lon="4.47251">
        <ele>256</ele>
        <time>2025-01-14T09:52:40Z</time>
      </trkpt>
      <trkpt lat="50.18922" lon="4.47225">
        <ele>255</ele>
        <time>2025-01-14T09:52:05Z</time>
      </trkpt>
    </trkseg>
  </trk>
</gpx>